Time;durP1;ratioP1;P1;durP2;ratioP2;P2;SDS_P1;SDS_P2;PMS_P1;PMS_P2;Temp;Humidity;BMP_temperature;BMP_pressure;BME280_temperature;BME280_humidity;BME280_pressure;Samples;Min_cycle;Max_cycle;Signal;HPM_P1;HPM_P2
2023/08/11 00:01:41;;;;;;;;;;;;;;;;;;4994408;28;20142;-74
2023/08/11 00:04:10;;;;;;;;;;;;;;;;;;4987363;28;19925;-74
2023/08/11 00:06:35;;;;;;;;;;;;;;;;;;5003603;28;19920;-74
2023/08/11 00:09:00;;;;;;;;;;;;;;;;;;4992416;28;19917;-73
2023/08/11 00:11:28;;;;;;;;;;;;;;;;;;5005462;28;19952;-75
2023/08/11 00:13:53;;;;;;;;;;;;;;;;;;4976237;28;20016;-75
2023/08/11 00:16:19;;;;;;;;;;;;;;;;;;4992303;28;19931;-75
2023/08/11 00:18:46;;;;;;;;;;;;;;;;;;5000060;28;19966;-75
2023/08/11 00:21:12;;;;;;;;;;;;;;;;;;5005151;28;20582;-74
2023/08/11 00:23:39;;;;;;;;;;;;;;;;;;5003656;28;19947;-74
2023/08/11 00:26:04;;;;;;;;;;;;;;;;;;5000483;28;19940;-74
2023/08/11 00:28:35;;;;;;;;;;;;;;;;;;4991133;28;20008;-74
2023/08/11 00:31:00;;;;;;;;;;;;;;;;;;4990283;28;19928;-75
2023/08/11 00:33:25;;;;;;;;;;;;;;;;;;4991301;28;19969;-75
2023/08/11 00:35:51;;;;;;;;;;;;;;;;;;4994654;28;20007;-75
2023/08/11 00:38:19;;;;;;;;;;;;;;;;;;4986303;28;19921;-75
2023/08/11 00:40:44;;;;;;;;;;;;;;;;;;4988162;28;19953;-75
2023/08/11 00:43:09;;;;;;;;;;;;;;;;;;4971222;28;19948;-75
2023/08/11 00:45:35;;;;;;;;;;;;;;;;;;5005752;28;20321;-75
2023/08/11 00:48:00;;;;;;;;;;;;;;;;;;4988059;28;19936;-75
2023/08/11 00:50:29;;;;;;;;;;;;;;;;;;4989481;28;20015;-75
2023/08/11 00:52:55;;;;;;;;;;;;;;;;;;4972753;28;20016;-75
2023/08/11 00:55:21;;;;;;;;;;;;;;;;;;4998535;28;20015;-74
2023/08/11 00:57:49;;;;;;;;;;;;;;;;;;4999450;28;19921;-74
2023/08/11 01:00:16;;;;;;;;;;;;;;;;;;4990309;28;19968;-75
2023/08/11 01:02:42;;;;;;;;;;;;;;;;;;4984205;28;20458;-75
2023/08/11 01:05:08;;;;;;;;;;;;;;;;;;4976233;28;19953;-74
2023/08/11 01:07:33;;;;;;;;;;;;;;;;;;4973921;28;20055;-74
2023/08/11 01:10:02;;;;;;;;;;;;;;;;;;5000988;28;19927;-75
2023/08/11 01:12:27;;;;;;;;;;;;;;;;;;4984989;28;19921;-75
2023/08/11 01:14:54;;;;;;;;;;;;;;;;;;5001251;28;19917;-75
2023/08/11 01:17:20;;;;;;;;;;;;;;;;;;4992161;28;19921;-75
2023/08/11 01:19:45;;;;;;;;;;;;;;;;;;4988991;28;20444;-76
2023/08/11 01:22:10;;;;;;;;;;;;;;;;;;4999369;28;19928;-76
2023/08/11 01:24:36;;;;;;;;;;;;;;;;;;4987714;28;19925;-75
2023/08/11 01:27:01;;;;;;;;;;;;;;;;;;4985454;28;20609;-75
2023/08/11 01:29:29;;;;;;;;;;;;;;;;;;5005680;28;19927;-75
2023/08/11 01:31:54;;;;;;;;;;;;;;;;;;4975017;28;19937;-74
2023/08/11 01:34:19;;;;;;;;;;;;;;;;;;5004847;28;20656;-74
2023/08/11 01:36:45;;;;;;;;;;;;;;;;;;4975401;28;19928;-75
2023/08/11 01:39:10;;;;;;;;;;;;;;;;;;4985858;28;20007;-75
2023/08/11 01:41:35;;;;;;;;;;;;;;;;;;4988851;28;19931;-74
2023/08/11 01:44:01;;;;;;;;;;;;;;;;;;4989655;28;19917;-75
2023/08/11 01:46:26;;;;;;;;;;;;;;;;;;5005599;28;20912;-76
2023/08/11 01:48:51;;;;;;;;;;;;;;;;;;5004766;28;19924;-74
2023/08/11 01:51:16;;;;;;;;;;;;;;;;;;4994154;28;19971;-74
2023/08/11 01:53:42;;;;;;;;;;;;;;;;;;4988669;28;19929;-75
2023/08/11 01:56:10;;;;;;;;;;;;;;;;;;5005140;28;19918;-74
2023/08/11 01:58:35;;;;;;;;;;;;;;;;;;4976065;28;20120;-76
2023/08/11 02:01:03;;;;;;;;;;;;;;;;;;5001330;28;20360;-74
2023/08/11 02:03:30;;;;;;;;;;;;;;;;;;4983732;28;19921;-75
2023/08/11 02:05:58;;;;;;;;;;;;;;;;;;4969402;28;19932;-74
2023/08/11 02:08:24;;;;;;;;;;;;;;;;;;4992219;28;19923;-75
2023/08/11 02:10:49;;;;;;;;;;;;;;;;;;4986752;28;19924;-74
2023/08/11 02:13:14;;;;;;;;;;;;;;;;;;4978230;28;19944;-75
2023/08/11 02:15:40;;;;;;;;;;;;;;;;;;4988197;28;19921;-74
2023/08/11 02:18:05;;;;;;;;;;;;;;;;;;5002715;28;20595;-76
2023/08/11 02:20:32;;;;;;;;;;;;;;;;;;5001707;28;19929;-74
2023/08/11 02:22:58;;;;;;;;;;;;;;;;;;4973541;28;19971;-75
2023/08/11 02:25:25;;;;;;;;;;;;;;;;;;4983367;28;20341;-75
2023/08/11 02:27:50;;;;;;;;;;;;;;;;;;5000253;28;20379;-75
2023/08/11 02:30:18;;;;;;;;;;;;;;;;;;5003917;28;19949;-75
2023/08/11 02:32:46;;;;;;;;;;;;;;;;;;4988760;28;19925;-76
2023/08/11 02:35:12;;;;;;;;;;;;;;;;;;4973268;28;19921;-74
2023/08/11 02:37:38;;;;;;;;;;;;;;;;;;4975257;28;19952;-74
2023/08/11 02:40:08;;;;;;;;;;;;;;;;;;4985615;28;20430;-74
2023/08/11 02:42:33;;;;;;;;;;;;;;;;;;5004811;28;19936;-75
2023/08/11 02:44:59;;;;;;;;;;;;;;;;;;4982663;28;19921;-74
2023/08/11 02:47:24;;;;;;;;;;;;;;;;;;4989762;28;19967;-75
2023/08/11 02:49:49;;;;;;;;;;;;;;;;;;4997826;28;19921;-75
2023/08/11 02:52:14;;;;;;;;;;;;;;;;;;4985539;28;19917;-74
2023/08/11 02:54:40;;;;;;;;;;;;;;;;;;5001091;28;20051;-75
2023/08/11 02:57:05;;;;;;;;;;;;;;;;;;4981423;28;19952;-75
2023/08/11 03:02:47;;;;;;;;;;;;;;;;;;5003033;28;19963;-75
2023/08/11 03:05:14;;;;;;;;;;;;;;;;;;4982869;28;20489;-75
2023/08/11 03:07:39;;;;;;;;;;;;;;;;;;4983603;28;19917;-74
2023/08/11 03:10:05;;;;;;;;;;;;;;;;;;5000413;28;20035;-74
2023/08/11 03:12:33;;;;;;;;;;;;;;;;;;4994967;28;20048;-74
2023/08/11 03:14:58;;;;;;;;;;;;;;;;;;4971253;28;21364;-74
2023/08/11 03:17:23;;;;;;;;;;;;;;;;;;4969105;28;20412;-73
2023/08/11 03:19:49;;;;;;;;;;;;;;;;;;4971441;28;19943;-73
2023/08/11 03:22:19;;;;;;;;;;;;;;;;;;4998848;28;20133;-75
2023/08/11 03:24:44;;;;;;;;;;;;;;;;;;4983048;28;19917;-73
2023/08/11 03:27:12;;;;;;;;;;;;;;;;;;4983512;28;20466;-75
2023/08/11 03:29:37;;;;;;;;;;;;;;;;;;4982676;28;20372;-72
2023/08/11 03:32:05;;;;;;;;;;;;;;;;;;4982431;28;19931;-74
2023/08/11 03:34:30;;;;;;;;;;;;;;;;;;4999009;28;20584;-74
2023/08/11 03:36:55;;;;;;;;;;;;;;;;;;4986315;28;19918;-74
2023/08/11 03:39:20;;;;;;;;;;;;;;;;;;4997930;28;19925;-74
2023/08/11 03:41:46;;;;;;;;;;;;;;;;;;4998715;28;19932;-73
2023/08/11 03:44:11;;;;;;;;;;;;;;;;;;4969243;28;19971;-74
2023/08/11 03:46:36;;;;;;;;;;;;;;;;;;4968726;28;19922;-73
2023/08/11 03:49:02;;;;;;;;;;;;;;;;;;4995454;28;20491;-74
2023/08/11 03:51:27;;;;;;;;;;;;;;;;;;4982860;28;19928;-75
2023/08/11 03:53:55;;;;;;;;;;;;;;;;;;4970478;28;19925;-74
2023/08/11 03:56:20;;;;;;;;;;;;;;;;;;4981029;28;20199;-74
2023/08/11 03:58:46;;;;;;;;;;;;;;;;;;4984022;28;20020;-75
2023/08/11 04:01:12;;;;;;;;;;;;;;;;;;4987548;28;19932;-73
2023/08/11 04:03:37;;;;;;;;;;;;;;;;;;4978956;28;19967;-74
2023/08/11 04:06:03;;;;;;;;;;;;;;;;;;4981697;28;20004;-75
2023/08/11 04:08:29;;;;;;;;;;;;;;;;;;5002713;28;19928;-75
2023/08/11 04:10:54;;;;;;;;;;;;;;;;;;4986863;28;19921;-76
2023/08/11 04:13:22;;;;;;;;;;;;;;;;;;4986769;28;20379;-76
2023/08/11 04:15:49;;;;;;;;;;;;;;;;;;4988997;28;20049;-75
2023/08/11 04:18:15;;;;;;;;;;;;;;;;;;4996889;28;19943;-76
2023/08/11 04:20:40;;;;;;;;;;;;;;;;;;4967686;28;19940;-76
2023/08/11 04:23:05;;;;;;;;;;;;;;;;;;4991754;28;20037;-75
2023/08/11 04:25:31;;;;;;;;;;;;;;;;;;5004074;28;20383;-75
2023/08/11 04:28:01;;;;;;;;;;;;;;;;;;4990679;28;20560;-72
2023/08/11 04:30:26;;;;;;;;;;;;;;;;;;5002180;28;21553;-73
2023/08/11 04:32:52;;;;;;;;;;;;;;;;;;4988148;28;20272;-74
2023/08/11 04:35:17;;;;;;;;;;;;;;;;;;5006761;28;20051;-75
2023/08/11 04:37:42;;;;;;;;;;;;;;;;;;4982532;28;20004;-74
2023/08/11 04:40:13;;;;;;;;;;;;;;;;;;4986965;28;20288;-75
2023/08/11 04:42:38;;;;;;;;;;;;;;;;;;5005621;28;19921;-75
2023/08/11 04:45:04;;;;;;;;;;;;;;;;;;4993449;28;19923;-75
2023/08/11 04:47:29;;;;;;;;;;;;;;;;;;4976193;28;19972;-75
2023/08/11 04:49:55;;;;;;;;;;;;;;;;;;5006226;28;20435;-75
2023/08/11 04:52:20;;;;;;;;;;;;;;;;;;5010085;28;20008;-74
2023/08/11 04:54:45;;;;;;;;;;;;;;;;;;4980671;28;19928;-74
2023/08/11 04:57:10;;;;;;;;;;;;;;;;;;4981436;28;19921;-74
2023/08/11 04:59:45;;;;;;;;;;;;;;;;;;5007060;28;20123;-75
2023/08/11 05:02:11;;;;;;;;;;;;;;;;;;4982953;28;20012;-74
2023/08/11 05:04:36;;;;;;;;;;;;;;;;;;4996106;28;20300;-74
2023/08/11 05:07:03;;;;;;;;;;;;;;;;;;4999345;28;20411;-74
2023/08/11 05:09:28;;;;;;;;;;;;;;;;;;4977913;28;20538;-74
2023/08/11 05:11:53;;;;;;;;;;;;;;;;;;4990404;28;19924;-75
2023/08/11 05:14:22;;;;;;;;;;;;;;;;;;5009900;28;19952;-76
2023/08/11 05:16:48;;;;;;;;;;;;;;;;;;4978071;28;20004;-74
2023/08/11 05:19:16;;;;;;;;;;;;;;;;;;5010982;28;20099;-74
2023/08/11 05:21:42;;;;;;;;;;;;;;;;;;5006608;28;19925;-75
2023/08/11 05:24:07;;;;;;;;;;;;;;;;;;4981952;28;19921;-76
2023/08/11 05:26:32;;;;;;;;;;;;;;;;;;4994644;28;19953;-74
2023/08/11 05:28:58;;;;;;;;;;;;;;;;;;5005247;28;19931;-73
2023/08/11 05:31:23;;;;;;;;;;;;;;;;;;4994628;28;20000;-74
2023/08/11 05:33:48;;;;;;;;;;;;;;;;;;5009599;28;20071;-74
2023/08/11 05:36:14;;;;;;;;;;;;;;;;;;4980601;28;20289;-76
2023/08/11 05:38:40;;;;;;;;;;;;;;;;;;5005399;28;20309;-74
2023/08/11 05:41:08;;;;;;;;;;;;;;;;;;4995591;28;19925;-73
2023/08/11 05:43:33;;;;;;;;;;;;;;;;;;4995910;28;19921;-73
2023/08/11 05:46:01;;;;;;;;;;;;;;;;;;5010100;28;19987;-73
2023/08/11 05:48:26;;;;;;;;;;;;;;;;;;5009632;28;20263;-74
2023/08/11 05:51:04;;;;;;;;;;;;;;;;;;4997436;28;19924;-74
2023/08/11 05:53:29;;;;;;;;;;;;;;;;;;4997526;28;20034;-75
2023/08/11 05:55:54;;;;;;;;;;;;;;;;;;5011125;28;19924;-74
2023/08/11 05:58:22;;;;;;;;;;;;;;;;;;4981236;28;19980;-74
2023/08/11 06:00:48;;;;;;;;;;;;;;;;;;5010929;28;20119;-72
2023/08/11 06:03:13;;;;;;;;;;;;;;;;;;4996320;28;20026;-72
2023/08/11 06:05:39;;;;;;;;;;;;;;;;;;4977994;28;19921;-73
2023/08/11 06:08:04;;;;;;;;;;;;;;;;;;5001209;28;20557;-74
2023/08/11 06:10:30;;;;;;;;;;;;;;;;;;4994259;28;20092;-73
2023/08/11 06:12:56;;;;;;;;;;;;;;;;;;5003309;28;20376;-73
2023/08/11 06:15:21;;;;;;;;;;;;;;;;;;4976617;28;20015;-74
2023/08/11 06:17:49;;;;;;;;;;;;;;;;;;5011604;28;19967;-75
2023/08/11 06:20:14;;;;;;;;;;;;;;;;;;4993347;28;19960;-75
2023/08/11 06:22:39;;;;;;;;;;;;;;;;;;4989113;28;20044;-75
2023/08/11 06:25:06;;;;;;;;;;;;;;;;;;4974600;28;19961;-75
2023/08/11 06:27:31;;;;;;;;;;;;;;;;;;4988416;28;19952;-73
2023/08/11 06:29:56;;;;;;;;;;;;;;;;;;4999393;28;20063;-75
2023/08/11 06:32:22;;;;;;;;;;;;;;;;;;4989433;28;19955;-75
2023/08/11 06:34:48;;;;;;;;;;;;;;;;;;4985459;28;20364;-75
2023/08/11 06:37:13;;;;;;;;;;;;;;;;;;4984235;28;19944;-75
2023/08/11 06:39:38;;;;;;;;;;;;;;;;;;4973390;28;19921;-75
2023/08/11 06:42:04;;;;;;;;;;;;;;;;;;4985527;28;19983;-75
2023/08/11 06:44:31;;;;;;;;;;;;;;;;;;5003130;28;19921;-75
2023/08/11 06:46:59;;;;;;;;;;;;;;;;;;4984340;28;20451;-75
2023/08/11 06:49:25;;;;;;;;;;;;;;;;;;5001623;28;20032;-75
2023/08/11 06:51:50;;;;;;;;;;;;;;;;;;4985627;28;20305;-76
2023/08/11 06:54:15;;;;;;;;;;;;;;;;;;4999466;28;19988;-76
2023/08/11 06:56:43;;;;;;;;;;;;;;;;;;5002379;28;20753;-76
2023/08/11 06:59:13;;;;;;;;;;;;;;;;;;4983936;28;19928;-77
2023/08/11 07:01:39;;;;;;;;;;;;;;;;;;4986247;28;20025;-75
2023/08/11 07:04:04;;;;;;;;;;;;;;;;;;4984279;28;20015;-77
2023/08/11 07:06:29;;;;;;;;;;;;;;;;;;4988717;28;19921;-76
2023/08/11 07:08:55;;;;;;;;;;;;;;;;;;5004582;28;19921;-74
2023/08/11 07:11:20;;;;;;;;;;;;;;;;;;5000626;28;19921;-74
2023/08/11 07:13:45;;;;;;;;;;;;;;;;;;4979156;28;20463;-74
2023/08/11 07:19:30;;;;;;;;;;;;;;;;;;5002181;28;20049;-73
2023/08/11 07:21:55;;;;;;;;;;;;;;;;;;4971157;28;19925;-75
2023/08/11 07:24:21;;;;;;;;;;;;;;;;;;4986744;28;20062;-75
2023/08/11 07:26:46;;;;;;;;;;;;;;;;;;4973165;28;20050;-73
2023/08/11 07:29:14;;;;;;;;;;;;;;;;;;4970488;28;20339;-73
2023/08/11 07:31:39;;;;;;;;;;;;;;;;;;4981779;28;19924;-72
2023/08/11 07:34:05;;;;;;;;;;;;;;;;;;4987790;28;19917;-75
2023/08/11 07:36:31;;;;;;;;;;;;;;;;;;4986477;28;19921;-74
2023/08/11 07:38:58;;;;;;;;;;;;;;;;;;4985199;28;19964;-72
2023/08/11 07:41:26;;;;;;;;;;;;;;;;;;5001180;28;19925;-73
2023/08/11 07:43:51;;;;;;;;;;;;;;;;;;4985565;28;19967;-73
2023/08/11 07:46:16;;;;;;;;;;;;;;;;;;4982232;28;19918;-75
2023/08/11 07:48:42;;;;;;;;;;;;;;;;;;4971578;28;19924;-72
2023/08/11 07:51:07;;;;;;;;;;;;;;;;;;4971332;28;19922;-72
2023/08/11 07:53:32;;;;;;;;;;;;;;;;;;4971425;28;20275;-72
2023/08/11 07:59:17;;;;;;;;;;;;;;;;;;5001539;28;20651;-72
2023/08/11 08:01:42;;;;;;;;;;;;;;;;;;5001281;28;20028;-73
2023/08/11 08:04:07;;;;;;;;;;;;;;;;;;4984293;28;20420;-73
2023/08/11 08:06:33;;;;;;;;;;;;;;;;;;4983982;28;19921;-73
2023/08/11 08:08:58;;;;;;;;;;;;;;;;;;4983983;28;20354;-75
2023/08/11 08:11:23;;;;;;;;;;;;;;;;;;4972303;28;19966;-74
2023/08/11 08:13:49;;;;;;;;;;;;;;;;;;4979838;28;19927;-72
2023/08/11 08:22:24;;;;;;;;;;;;;;;;;;4982056;28;20303;-72
2023/08/11 08:24:49;;;;;;;;;;;;;;;;;;4973414;28;19917;-72
2023/08/11 08:27:24;;;;;;;;;;;;;;;;;;4988244;28;19932;-72
2023/08/11 08:29:49;;;;;;;;;;;;;;;;;;4988030;28;19917;-74
2023/08/11 08:35:31;;;;;;;;;;;;;;;;;;5001470;28;19995;-71
2023/08/11 08:37:59;;;;;;;;;;;;;;;;;;4989199;28;20145;-73
2023/08/11 08:40:24;;;;;;;;;;;;;;;;;;4987386;28;20228;-74
2023/08/11 08:42:50;;;;;;;;;;;;;;;;;;4965774;28;19924;-71
2023/08/11 08:45:15;;;;;;;;;;;;;;;;;;5000244;28;19964;-72
2023/08/11 08:47:41;;;;;;;;;;;;;;;;;;4970070;28;19933;-77
2023/08/11 08:50:06;;;;;;;;;;;;;;;;;;4968653;28;19928;-74
2023/08/11 08:52:31;;;;;;;;;;;;;;;;;;4975463;28;19948;-74
2023/08/11 08:54:57;;;;;;;;;;;;;;;;;;4971537;28;19921;-72
2023/08/11 08:57:23;;;;;;;;;;;;;;;;;;4966188;28;19921;-75
2023/08/11 08:59:48;;;;;;;;;;;;;;;;;;4981315;28;19991;-71
2023/08/11 09:02:13;;;;;;;;;;;;;;;;;;4979692;28;19928;-72
2023/08/11 09:04:38;;;;;;;;;;;;;;;;;;4982908;28;20484;-71
2023/08/11 09:07:04;;;;;;;;;;;;;;;;;;4982902;28;20127;-75
2023/08/11 09:12:51;;;;;;;;;;;;;;;;;;4998943;28;20432;-71
2023/08/11 09:15:17;;;;;;;;;;;;;;;;;;4984276;28;19944;-72
2023/08/11 09:17:42;;;;;;;;;;;;;;;;;;4961860;28;19921;-71
2023/08/11 09:20:09;;;;;;;;;;;;;;;;;;4986108;28;19988;-73
2023/08/11 09:25:54;;;;;;;;;;;;;;;;;;5006267;28;19944;-71
2023/08/11 09:28:20;;;;;;;;;;;;;;;;;;4983924;28;20480;-71
2023/08/11 09:30:47;;;;;;;;;;;;;;;;;;4972698;28;19928;-72
2023/08/11 09:33:13;;;;;;;;;;;;;;;;;;5001187;28;19918;-71
2023/08/11 09:35:41;;;;;;;;;;;;;;;;;;4986291;28;19917;-69
2023/08/11 09:38:06;;;;;;;;;;;;;;;;;;4980389;28;19969;-71
2023/08/11 09:40:34;;;;;;;;;;;;;;;;;;4970884;28;19929;-75
2023/08/11 09:43:04;;;;;;;;;;;;;;;;;;4994710;28;20552;-70
2023/08/11 09:45:30;;;;;;;;;;;;;;;;;;4988859;28;19928;-71
2023/08/11 09:47:55;;;;;;;;;;;;;;;;;;5002369;28;19922;-70
2023/08/11 09:50:21;;;;;;;;;;;;;;;;;;4987231;28;19921;-76
2023/08/11 09:52:49;;;;;;;;;;;;;;;;;;4973901;28;19921;-71
2023/08/11 09:55:18;;;;;;;;;;;;;;;;;;4988100;28;19960;-71
2023/08/11 09:57:43;;;;;;;;;;;;;;;;;;4972050;28;19932;-71
2023/08/11 10:00:12;;;;;;;;;;;;;;;;;;5001918;28;19925;-71
2023/08/11 10:02:41;;;;;;;;;;;;;;;;;;4986362;28;19973;-71
2023/08/11 10:05:06;;;;;;;;;;;;;;;;;;4985869;28;19928;-72
2023/08/11 10:07:34;;;;;;;;;;;;;;;;;;4980465;28;20042;-71
2023/08/11 10:10:01;;;;;;;;;;;;;;;;;;4985697;28;20383;-72
2023/08/11 10:12:27;;;;;;;;;;;;;;;;;;4986521;28;19921;-71
2023/08/11 10:14:55;;;;;;;;;;;;;;;;;;4984791;28;19921;-70
2023/08/11 10:17:20;;;;;;;;;;;;;;;;;;4985893;28;19948;-73
2023/08/11 10:19:45;;;;;;;;;;;;;;;;;;4986088;28;21502;-74
2023/08/11 10:22:11;;;;;;;;;;;;;;;;;;4964314;28;19941;-71
2023/08/11 10:24:40;;;;;;;;;;;;;;;;;;4966253;28;19944;-70
2023/08/11 10:27:09;;;;;;;;;;;;;;;;;;4945489;28;19925;-71
2023/08/11 10:32:57;;;;;;;;;;;;;;;;;;4960210;28;20004;-71
2023/08/11 10:35:22;;;;;;;;;;;;;;;;;;4970361;28;19991;-71
2023/08/11 10:37:47;;;;;;;;;;;;;;;;;;4961848;28;20817;-70
2023/08/11 10:40:12;;;;;;;;;;;;;;;;;;4964222;28;20325;-69
2023/08/11 10:42:38;;;;;;;;;;;;;;;;;;4947794;28;19921;-69
2023/08/11 10:45:06;;;;;;;;;;;;;;;;;;4945609;28;19961;-71
2023/08/11 10:50:18;;;;;;;;;;;;;;;;;;4966949;28;19921;-66
2023/08/11 10:52:43;;;;;;;;;;;;;;;;;;4960821;28;20143;-70
2023/08/11 10:55:08;;;;;;;;;;;;;;;;;;4965262;28;19922;-71
2023/08/11 10:57:36;;;;;;;;;;;;;;;;;;4948610;28;19921;-71
2023/08/11 11:00:03;;;;;;;;;;;;;;;;;;4958231;28;19929;-72
2023/08/11 11:02:33;;;;;;;;;;;;;;;;;;4960615;28;20198;-70
2023/08/11 11:04:58;;;;;;;;;;;;;;;;;;4965812;28;19946;-72
2023/08/11 11:07:26;;;;;;;;;;;;;;;;;;4943449;28;19922;-70
2023/08/11 11:09:52;;;;;;;;;;;;;;;;;;4961686;28;19926;-72
2023/08/11 11:12:17;;;;;;;;;;;;;;;;;;4955890;28;20325;-72
2023/08/11 11:14:42;;;;;;;;;;;;;;;;;;4960137;28;19918;-70
2023/08/11 11:17:10;;;;;;;;;;;;;;;;;;4960028;28;20013;-70
2023/08/11 11:19:41;;;;;;;;;;;;;;;;;;4963445;28;20044;-71
2023/08/11 11:22:09;;;;;;;;;;;;;;;;;;4933749;28;21697;-70
2023/08/11 11:24:37;;;;;;;;;;;;;;;;;;4961653;28;20443;-70
2023/08/11 11:27:03;;;;;;;;;;;;;;;;;;4964898;28;20005;-74
2023/08/11 11:29:31;;;;;;;;;;;;;;;;;;4960111;28;20345;-68
2023/08/11 11:31:59;;;;;;;;;;;;;;;;;;4963877;28;19914;-71
2023/08/11 11:34:27;;;;;;;;;;;;;;;;;;4955820;28;21576;-70
2023/08/11 11:36:53;;;;;;;;;;;;;;;;;;4945570;28;20069;-70
2023/08/11 11:39:23;;;;;;;;;;;;;;;;;;4948060;28;20374;-71
2023/08/11 11:41:49;;;;;;;;;;;;;;;;;;4961619;28;19926;-71
2023/08/11 11:47:32;;;;;;;;;;;;;;;;;;4963108;28;20489;-73
2023/08/11 11:50:00;;;;;;;;;;;;;;;;;;4963599;28;19918;-69
2023/08/11 11:52:26;;;;;;;;;;;;;;;;;;4973719;28;19952;-71
2023/08/11 11:54:57;;;;;;;;;;;;;;;;;;4971919;28;19928;-71
2023/08/11 12:00:16;;;;;;;;;;;;;;;;;;4965974;28;19981;-72
2023/08/11 12:02:41;;;;;;;;;;;;;;;;;;4963036;28;20425;-71
2023/08/11 12:05:07;;;;;;;;;;;;;;;;;;4963901;28;19925;-73
2023/08/11 12:10:49;;;;;;;;;;;;;;;;;;4963865;28;20043;-74
2023/08/11 12:13:15;;;;;;;;;;;;;;;;;;4960278;28;20497;-71
2023/08/11 12:15:40;;;;;;;;;;;;;;;;;;4955522;28;19948;-74
2023/08/11 12:18:10;;;;;;;;;;;;;;;;;;4960956;28;21089;-73
2023/08/11 12:20:38;;;;;;;;;;;;;;;;;;4939354;28;20448;-70
2023/08/11 12:23:09;;;;;;;;;;;;;;;;;;4962598;28;19936;-70
2023/08/11 12:25:34;;;;;;;;;;;;;;;;;;4963904;28;19951;-70
2023/08/11 12:28:01;;;;;;;;;;;;;;;;;;4960353;28;19991;-71
2023/08/11 12:30:27;;;;;;;;;;;;;;;;;;4945051;28;19921;-72
2023/08/11 12:32:57;;;;;;;;;;;;;;;;;;4963367;28;19989;-70
2023/08/11 12:35:28;;;;;;;;;;;;;;;;;;4966482;28;19922;-69
2023/08/11 12:37:54;;;;;;;;;;;;;;;;;;4956455;28;21545;-72
2023/08/11 12:43:09;;;;;;;;;;;;;;;;;;4960035;28;20297;-71
2023/08/11 12:45:37;;;;;;;;;;;;;;;;;;4959063;28;19930;-71
2023/08/11 12:48:05;;;;;;;;;;;;;;;;;;4969636;28;19918;-71
2023/08/11 12:50:30;;;;;;;;;;;;;;;;;;4960812;28;19945;-72
2023/08/11 12:52:58;;;;;;;;;;;;;;;;;;4961237;28;20024;-68
2023/08/11 12:55:23;;;;;;;;;;;;;;;;;;4967956;28;19926;-72
2023/08/11 12:57:49;;;;;;;;;;;;;;;;;;4951543;28;19948;-70
2023/08/11 13:00:14;;;;;;;;;;;;;;;;;;4948503;28;19972;-71
2023/08/11 13:02:40;;;;;;;;;;;;;;;;;;4961626;28;19922;-73
2023/08/11 13:05:05;;;;;;;;;;;;;;;;;;4966034;28;19993;-71
2023/08/11 13:07:30;;;;;;;;;;;;;;;;;;4950731;28;22242;-70
2023/08/11 13:09:55;;;;;;;;;;;;;;;;;;4966523;28;19918;-71
2023/08/11 13:12:21;;;;;;;;;;;;;;;;;;4974040;28;19922;-72
2023/08/11 13:14:49;;;;;;;;;;;;;;;;;;4953798;28;20016;-71
2023/08/11 13:17:17;;;;;;;;;;;;;;;;;;4945810;28;20045;-69
2023/08/11 13:23:02;;;;;;;;;;;;;;;;;;4991381;28;19935;-70
2023/08/11 13:25:30;;;;;;;;;;;;;;;;;;4998770;28;20408;-68
2023/08/11 13:27:56;;;;;;;;;;;;;;;;;;4983480;28;19926;-71
2023/08/11 13:30:24;;;;;;;;;;;;;;;;;;4977465;28;20716;-71
2023/08/11 13:32:54;;;;;;;;;;;;;;;;;;4990739;28;20768;-70
2023/08/11 13:35:22;;;;;;;;;;;;;;;;;;4973577;28;20389;-69
2023/08/11 13:37:59;;;;;;;;;;;;;;;;;;4973117;28;20038;-70
2023/08/11 13:40:25;;;;;;;;;;;;;;;;;;4974085;28;19929;-71
2023/08/11 13:42:52;;;;;;;;;;;;;;;;;;5004692;28;19960;-71
2023/08/11 13:45:18;;;;;;;;;;;;;;;;;;4970477;28;20035;-70
2023/08/11 13:47:43;;;;;;;;;;;;;;;;;;4985461;28;20389;-70
2023/08/11 13:50:09;;;;;;;;;;;;;;;;;;4988195;28;19921;-72
2023/08/11 13:52:36;;;;;;;;;;;;;;;;;;4984846;28;19921;-71
2023/08/11 13:55:02;;;;;;;;;;;;;;;;;;4971025;28;19995;-71
2023/08/11 13:57:30;;;;;;;;;;;;;;;;;;4972125;28;19921;-71
2023/08/11 13:59:58;;;;;;;;;;;;;;;;;;4989367;28;20296;-69
2023/08/11 14:02:23;;;;;;;;;;;;;;;;;;4972944;28;20159;-71
2023/08/11 14:04:51;;;;;;;;;;;;;;;;;;5003964;28;20385;-71
2023/08/11 14:07:22;;;;;;;;;;;;;;;;;;4964536;28;20016;-68
2023/08/11 14:09:47;;;;;;;;;;;;;;;;;;4971990;28;20860;-69
2023/08/11 14:12:15;;;;;;;;;;;;;;;;;;4979391;28;19952;-68
2023/08/11 14:14:43;;;;;;;;;;;;;;;;;;4986885;28;20462;-71
2023/08/11 14:17:08;;;;;;;;;;;;;;;;;;4969805;28;20261;-69
2023/08/11 14:22:21;;;;;;;;;;;;;;;;;;4981365;28;20282;-71
2023/08/11 14:24:47;;;;;;;;;;;;;;;;;;4981041;28;19935;-72
2023/08/11 14:27:14;;;;;;;;;;;;;;;;;;4997435;28;19937;-70
2023/08/11 14:29:40;;;;;;;;;;;;;;;;;;4969151;28;20464;-68
2023/08/11 14:32:07;;;;;;;;;;;;;;;;;;5000025;28;20377;-71
2023/08/11 14:34:32;;;;;;;;;;;;;;;;;;4981842;28;19994;-66
2023/08/11 14:37:00;;;;;;;;;;;;;;;;;;5003488;28;19917;-70
2023/08/11 14:39:25;;;;;;;;;;;;;;;;;;5002217;28;20357;-70
2023/08/11 14:41:53;;;;;;;;;;;;;;;;;;4984084;28;19925;-67
2023/08/11 14:44:19;;;;;;;;;;;;;;;;;;4965996;28;19933;-72
2023/08/11 14:46:44;;;;;;;;;;;;;;;;;;5001718;28;19959;-70
2023/08/11 14:49:09;;;;;;;;;;;;;;;;;;4996378;28;19920;-70
2023/08/11 14:51:35;;;;;;;;;;;;;;;;;;4983562;28;19971;-71
2023/08/11 14:54:00;;;;;;;;;;;;;;;;;;4982298;28;19921;-71
2023/08/11 14:56:28;;;;;;;;;;;;;;;;;;4998094;28;20005;-75
2023/08/11 14:58:56;;;;;;;;;;;;;;;;;;4969590;28;19921;-68
2023/08/11 15:01:21;;;;;;;;;;;;;;;;;;4985136;28;20439;-69
2023/08/11 15:03:47;;;;;;;;;;;;;;;;;;4969892;28;20118;-70
2023/08/11 15:06:12;;;;;;;;;;;;;;;;;;4989167;28;20123;-68
2023/08/11 15:08:37;;;;;;;;;;;;;;;;;;4990116;28;19914;-72
2023/08/11 15:11:05;;;;;;;;;;;;;;;;;;4985254;28;19928;-72
2023/08/11 15:13:30;;;;;;;;;;;;;;;;;;4970716;28;19921;-70
2023/08/11 15:15:55;;;;;;;;;;;;;;;;;;4984215;28;19949;-66
2023/08/11 15:18:22;;;;;;;;;;;;;;;;;;5002449;28;20629;-70
2023/08/11 15:23:38;;;;;;;;;;;;;;;;;;4960912;28;19972;-70
2023/08/11 15:26:06;;;;;;;;;;;;;;;;;;4963847;28;20501;-71
2023/08/11 15:28:35;;;;;;;;;;;;;;;;;;4965353;28;20419;-68
2023/08/11 15:31:04;;;;;;;;;;;;;;;;;;4930196;28;20334;-71
2023/08/11 15:33:29;;;;;;;;;;;;;;;;;;4964048;28;20093;-69
2023/08/11 15:35:55;;;;;;;;;;;;;;;;;;4962441;28;20020;-71
2023/08/11 15:38:20;;;;;;;;;;;;;;;;;;4963154;28;19918;-71
2023/08/11 15:40:45;;;;;;;;;;;;;;;;;;4951971;28;19940;-71
2023/08/11 15:43:10;;;;;;;;;;;;;;;;;;4964796;28;19929;-72
2023/08/11 15:45:36;;;;;;;;;;;;;;;;;;4957569;28;19918;-71
2023/08/11 15:48:06;;;;;;;;;;;;;;;;;;4967979;28;19972;-71
2023/08/11 15:50:31;;;;;;;;;;;;;;;;;;4963298;28;20570;-71
2023/08/11 15:52:59;;;;;;;;;;;;;;;;;;4965224;28;20021;-72
2023/08/11 15:55:27;;;;;;;;;;;;;;;;;;4948849;28;19920;-72
2023/08/11 15:57:55;;;;;;;;;;;;;;;;;;4968144;28;19941;-72
2023/08/11 16:00:23;;;;;;;;;;;;;;;;;;4962615;28;20402;-71
2023/08/11 16:02:51;;;;;;;;;;;;;;;;;;4960889;28;19976;-71
2023/08/11 16:08:32;;;;;;;;;;;;;;;;;;4964053;28;19928;-70
2023/08/11 16:11:00;;;;;;;;;;;;;;;;;;4951650;28;19919;-72
2023/08/11 16:13:28;;;;;;;;;;;;;;;;;;4962751;28;19918;-72
2023/08/11 16:15:56;;;;;;;;;;;;;;;;;;4963691;28;20762;-73
2023/08/11 16:18:24;;;;;;;;;;;;;;;;;;4964137;28;20771;-73
2023/08/11 16:20:52;;;;;;;;;;;;;;;;;;4963662;28;20008;-73
2023/08/11 16:23:20;;;;;;;;;;;;;;;;;;4993983;28;19929;-72
2023/08/11 16:25:48;;;;;;;;;;;;;;;;;;4971153;28;20266;-72
2023/08/11 16:28:16;;;;;;;;;;;;;;;;;;4972696;28;19924;-73
2023/08/11 16:30:41;;;;;;;;;;;;;;;;;;4990746;28;19917;-72
2023/08/11 16:36:01;;;;;;;;;;;;;;;;;;4986627;28;19922;-72
2023/08/11 16:38:32;;;;;;;;;;;;;;;;;;4989442;28;20371;-72
2023/08/11 16:41:00;;;;;;;;;;;;;;;;;;5004483;28;20538;-71
2023/08/11 16:43:28;;;;;;;;;;;;;;;;;;4973513;28;19933;-69
2023/08/11 16:45:56;;;;;;;;;;;;;;;;;;4988528;28;19913;-71
2023/08/11 16:48:21;;;;;;;;;;;;;;;;;;4975838;28;20400;-71
2023/08/11 16:50:46;;;;;;;;;;;;;;;;;;4978665;28;19928;-73
2023/08/11 16:53:14;;;;;;;;;;;;;;;;;;4993403;28;19921;-71
2023/08/11 16:55:39;;;;;;;;;;;;;;;;;;4978979;28;20331;-72
2023/08/11 16:58:07;;;;;;;;;;;;;;;;;;4988699;28;20013;-71
2023/08/11 17:00:32;;;;;;;;;;;;;;;;;;4999602;28;19996;-70
2023/08/11 17:02:57;;;;;;;;;;;;;;;;;;4983193;28;20599;-72
2023/08/11 17:05:25;;;;;;;;;;;;;;;;;;4975902;28;19928;-71
2023/08/11 17:07:53;;;;;;;;;;;;;;;;;;4972694;28;19920;-71
2023/08/11 17:10:18;;;;;;;;;;;;;;;;;;4998378;28;19924;-74
2023/08/11 17:12:46;;;;;;;;;;;;;;;;;;5007016;28;19917;-72
2023/08/11 17:15:11;;;;;;;;;;;;;;;;;;4987149;28;19971;-72
2023/08/11 17:17:37;;;;;;;;;;;;;;;;;;4987434;28;19917;-72
2023/08/11 17:20:07;;;;;;;;;;;;;;;;;;5001505;28;19971;-72
2023/08/11 17:22:35;;;;;;;;;;;;;;;;;;4992902;28;21422;-71
2023/08/11 17:25:05;;;;;;;;;;;;;;;;;;4990845;28;19921;-73
2023/08/11 17:27:31;;;;;;;;;;;;;;;;;;4979626;28;19924;-72
2023/08/11 17:29:56;;;;;;;;;;;;;;;;;;4980820;28;19921;-72
2023/08/11 17:32:24;;;;;;;;;;;;;;;;;;4984444;28;19974;-72
2023/08/11 17:34:50;;;;;;;;;;;;;;;;;;5011340;28;19917;-71
2023/08/11 17:37:17;;;;;;;;;;;;;;;;;;5011109;28;19948;-71
2023/08/11 17:39:43;;;;;;;;;;;;;;;;;;4996061;28;19928;-71